Time;durP1;ratioP1;P1;durP2;ratioP2;P2;SDS_P1;SDS_P2;PMS_P1;PMS_P2;Temp;Humidity;BMP_temperature;BMP_pressure;BME280_temperature;BME280_humidity;BME280_pressure;Samples;Min_cycle;Max_cycle;Signal;HPM_P1;HPM_P2
2023/06/14 00:02:04;;;;;;;5.18;2.58;;;;;;;-146.58;100.00;69501.63;5033524;28;20064;-65
2023/06/14 00:04:30;;;;;;;15.98;3.72;;;;;;;-146.58;100.00;69501.63;5031864;28;20037;-66
2023/06/14 00:06:56;;;;;;;5.68;2.05;;;;;;;-146.58;100.00;69501.63;5033449;28;20025;-66
2023/06/14 00:09:23;;;;;;;14.35;4.15;;;;;;;-146.58;100.00;69501.63;5032350;28;20415;-66
2023/06/14 00:11:48;;;;;;;6.55;2.80;;;;;;;-146.58;100.00;69501.63;5033281;28;20025;-66
2023/06/14 00:14:13;;;;;;;3.78;2.13;;;;;;;-146.58;100.00;69501.63;5031899;28;20060;-66
2023/06/14 00:16:42;;;;;;;7.97;3.03;;;;;;;-146.58;100.00;69501.63;5033388;28;20025;-66
2023/06/14 00:19:08;;;;;;;;;;;;;;;-146.58;100.00;69501.63;5032456;28;20095;-66
2023/06/14 00:21:34;;;;;;;5.30;2.15;;;;;;;-146.58;100.00;69501.63;5033252;28;19909;-66
2023/06/14 00:24:01;;;;;;;5.20;2.28;;;;;;;-146.58;100.00;69501.63;5031791;28;20455;-66
2023/06/14 00:26:26;;;;;;;5.82;2.60;;;;;;;-146.58;100.00;69501.63;5033100;28;20025;-66
2023/06/14 00:28:52;;;;;;;4.53;2.33;;;;;;;-146.58;100.00;69501.63;5031540;28;20555;-66
2023/06/14 00:31:17;;;;;;;12.98;2.92;;;;;;;-146.58;100.00;69501.63;5033291;28;20071;-66
2023/06/14 00:33:43;;;;;;;5.13;2.30;;;;;;;-146.58;100.00;69501.63;5031327;28;20045;-66
2023/06/14 00:36:08;;;;;;;9.05;2.53;;;;;;;-146.58;100.00;69501.63;5032758;28;20025;-66
2023/06/14 00:38:34;;;;;;;9.80;2.45;;;;;;;-146.58;100.00;69501.63;5031693;28;20045;-66
2023/06/14 00:41:00;;;;;;;4.07;2.70;;;;;;;-146.58;100.00;69501.63;5032602;28;20022;-66
2023/06/14 00:43:25;;;;;;;4.40;2.30;;;;;;;-146.58;100.00;69501.63;5031532;28;20083;-66
2023/06/14 00:45:51;;;;;;;3.17;2.85;;;;;;;-146.58;100.00;69501.63;5032784;28;20014;-66
2023/06/14 00:48:17;;;;;;;5.50;2.78;;;;;;;-146.58;100.00;69501.63;5031546;28;20068;-65
2023/06/14 00:50:45;;;;;;;6.57;2.67;;;;;;;-146.58;100.00;69501.63;5032102;28;20025;-66
2023/06/14 00:53:15;;;;;;;5.97;2.08;;;;;;;-146.58;100.00;69501.63;5031738;28;20033;-65
2023/06/14 00:55:40;;;;;;;4.72;2.28;;;;;;;-146.58;100.00;69501.63;5032379;28;20068;-66
2023/06/14 00:58:06;;;;;;;6.10;2.65;;;;;;;-146.58;100.00;69501.63;5032665;28;20068;-66
2023/06/14 01:00:31;;;;;;;8.10;3.10;;;;;;;-146.58;100.00;69501.63;5031401;28;20042;-65
2023/06/14 01:02:56;;;;;;;9.88;2.78;;;;;;;-146.58;100.00;69501.63;5031786;28;20448;-66
2023/06/14 01:05:23;;;;;;;9.55;2.83;;;;;;;-146.58;100.00;69501.63;5031044;28;20093;-65
2023/06/14 01:08:37;;;;;;;4.63;2.10;;;;;;;-146.58;100.00;69501.63;5032446;28;20022;-65
2023/06/14 01:11:12;;;;;;;7.13;2.10;;;;;;;-146.58;100.00;69501.63;5030392;28;20527;-65
2023/06/14 01:13:45;;;;;;;3.72;2.45;;;;;;;-146.58;100.00;69501.63;5031095;28;20496;-65
2023/06/14 01:16:11;;;;;;;3.58;1.58;;;;;;;-146.58;100.00;69501.63;5030583;28;20041;-65
2023/06/14 01:18:37;;;;;;;4.55;2.60;;;;;;;-146.58;100.00;69501.63;5030665;28;20500;-66
2023/06/14 01:21:09;;;;;;;3.17;2.38;;;;;;;-146.58;100.00;69501.63;5032262;28;20030;-65
2023/06/14 01:23:34;;;;;;;7.20;2.72;;;;;;;-146.58;100.00;69501.63;5031068;28;20048;-65
2023/06/14 01:26:03;;;;;;;2.10;1.83;;;;;;;-146.58;100.00;69501.63;5031777;28;20025;-65
2023/06/14 01:28:31;;;;;;;3.15;2.63;;;;;;;-146.58;100.00;69501.63;5030920;28;20037;-65
2023/06/14 01:31:00;;;;;;;5.13;3.15;;;;;;;-146.58;100.00;69501.63;5021284;28;20029;-65
2023/06/14 01:33:27;;;;;;;;;;;;;;;-146.58;100.00;69501.63;5014333;28;20078;-65
2023/06/14 01:35:54;;;;;;;7.28;2.78;;;;;;;-146.58;100.00;69501.63;5031490;28;20348;-66
2023/06/14 01:38:23;;;;;;;3.33;2.10;;;;;;;-146.58;100.00;69501.63;5030415;28;20029;-66
2023/06/14 01:40:50;;;;;;;9.48;3.40;;;;;;;-146.58;100.00;69501.63;5031336;28;20030;-65
2023/06/14 01:43:16;;;;;;;2.60;2.40;;;;;;;-146.58;100.00;69501.63;5030830;28;20040;-64
2023/06/14 01:45:42;;;;;;;10.52;3.78;;;;;;;-146.58;100.00;69501.63;5031653;28;20026;-64
2023/06/14 01:48:08;;;;;;;4.47;2.72;;;;;;;-146.58;100.00;69501.63;5030087;28;20029;-64
2023/06/14 01:50:34;;;;;;;4.63;2.60;;;;;;;-146.58;100.00;69501.63;5031688;28;20210;-65
2023/06/14 01:53:00;;;;;;;4.32;2.47;;;;;;;-146.58;100.00;69501.63;5031447;28;20435;-65
2023/06/14 01:55:25;;;;;;;6.93;2.60;;;;;;;-146.58;100.00;69501.63;5029781;28;20037;-65
2023/06/14 01:57:54;;;;;;;2.80;2.28;;;;;;;-146.58;100.00;69501.63;5030784;28;20021;-65
2023/06/14 02:00:21;;;;;;;7.75;2.42;;;;;;;-146.58;100.00;69501.63;5030090;28;20664;-64
2023/06/14 02:02:46;;;;;;;2.13;1.92;;;;;;;-146.58;100.00;69501.63;5030852;28;20100;-65
2023/06/14 02:05:12;;;;;;;3.17;1.90;;;;;;;-146.58;100.00;69501.63;5030046;28;20037;-65
2023/06/14 02:07:37;;;;;;;10.90;3.05;;;;;;;-146.58;100.00;69501.63;5031568;28;20021;-65
2023/06/14 02:10:04;;;;;;;6.43;3.33;;;;;;;-146.58;100.00;69501.63;5029487;28;20496;-66
2023/06/14 02:12:29;;;;;;;5.22;2.88;;;;;;;-146.58;100.00;69501.63;5031130;28;20037;-66
2023/06/14 02:14:56;;;;;;;5.15;3.30;;;;;;;-146.58;100.00;69501.63;5029684;28;20037;-65
2023/06/14 02:17:21;;;;;;;7.18;2.67;;;;;;;-146.58;100.00;69501.63;5030988;28;20022;-66
2023/06/14 02:19:47;;;;;;;7.65;3.85;;;;;;;-146.58;100.00;69501.63;5029656;28;20049;-65
2023/06/14 02:22:14;;;;;;;7.88;2.78;;;;;;;-146.58;100.00;69501.63;5031232;28;20026;-66
2023/06/14 02:24:40;;;;;;;8.63;2.90;;;;;;;-146.58;100.00;69501.63;5015907;28;20065;-65
2023/06/14 02:27:06;;;;;;;5.13;2.85;;;;;;;-146.58;100.00;69501.63;5011387;28;20796;-65
2023/06/14 02:29:31;;;;;;;2.28;1.98;;;;;;;-146.58;100.00;69501.63;5009812;28;20045;-65
2023/06/14 02:31:57;;;;;;;3.80;2.60;;;;;;;-146.58;100.00;69501.63;5010852;28;20026;-66
2023/06/14 02:34:22;;;;;;;6.53;3.22;;;;;;;-146.58;100.00;69501.63;5009796;28;20046;-66
2023/06/14 02:36:48;;;;;;;5.07;2.78;;;;;;;-146.58;100.00;69501.63;5011279;28;20022;-66
2023/06/14 02:39:13;;;;;;;6.28;2.63;;;;;;;-146.58;100.00;69501.63;5009614;28;20041;-66
2023/06/14 02:41:39;;;;;;;3.70;2.45;;;;;;;-146.58;100.00;69501.63;5011311;28;20034;-66
2023/06/14 02:44:04;;;;;;;4.28;2.10;;;;;;;-146.58;100.00;69501.63;5009847;28;20038;-66
2023/06/14 02:46:30;;;;;;;4.30;2.53;;;;;;;-146.58;100.00;69501.63;5010667;28;20022;-66
2023/06/14 02:48:55;;;;;;;7.25;2.47;;;;;;;-146.58;100.00;69501.63;5009359;28;20492;-66
2023/06/14 02:51:20;;;;;;;6.28;2.10;;;;;;;-146.58;100.00;69501.63;5010941;28;20025;-66
2023/06/14 02:53:46;;;;;;;3.33;2.72;;;;;;;-146.58;100.00;69501.63;5009231;28;20048;-66
2023/06/14 02:56:11;;;;;;;3.60;2.60;;;;;;;-146.58;100.00;69501.63;5009757;28;20026;-66
2023/06/14 02:58:37;;;;;;;4.28;3.05;;;;;;;-146.58;100.00;69501.63;5009652;28;20376;-66
2023/06/14 03:01:05;;;;;;;7.50;3.33;;;;;;;-146.58;100.00;69501.63;5010198;28;20046;-66
2023/06/14 03:03:31;;;;;;;2.85;2.28;;;;;;;-146.58;100.00;69501.63;5009550;28;20501;-66
2023/06/14 03:05:57;;;;;;;4.68;2.75;;;;;;;-146.58;100.00;69501.63;5011015;28;20037;-67
2023/06/14 03:08:27;;;;;;;6.65;3.05;;;;;;;-146.58;100.00;69501.63;5009403;28;20095;-66
2023/06/14 03:10:52;;;;;;;5.13;2.53;;;;;;;-146.58;100.00;69501.63;5013293;28;20028;-66
2023/06/14 03:13:20;;;;;;;5.78;3.58;;;;;;;-146.58;100.00;69501.63;5013591;28;20022;-67
2023/06/14 03:15:49;;;;;;;8.25;3.22;;;;;;;-146.58;100.00;69501.63;5014271;28;20030;-66
2023/06/14 03:18:15;;;;;;;9.25;3.65;;;;;;;-146.58;100.00;69501.63;5013509;28;20033;-65
2023/06/14 03:20:42;;;;;;;2.92;2.33;;;;;;;-146.58;100.00;69501.63;5014514;28;20449;-65
2023/06/14 03:23:08;;;;;;;3.03;2.55;;;;;;;-146.58;100.00;69501.63;5013013;28;20181;-66
2023/06/14 03:25:35;;;;;;;5.13;2.38;;;;;;;-146.58;100.00;69501.63;5014997;28;20072;-63
2023/06/14 03:28:01;;;;;;;7.85;3.28;;;;;;;-146.58;100.00;69501.63;5014001;28;20536;-66
2023/06/14 03:30:26;;;;;;;5.15;2.58;;;;;;;-146.58;100.00;69501.63;5012931;28;20049;-66
2023/06/14 03:32:52;;;;;;;4.10;2.28;;;;;;;-146.58;100.00;69501.63;5014218;28;20464;-66
2023/06/14 03:35:18;;;;;;;6.10;2.80;;;;;;;-146.58;100.00;69501.63;5012933;28;20463;-66
2023/06/14 03:37:45;;;;;;;4.90;3.17;;;;;;;-146.58;100.00;69501.63;5014078;28;20045;-63
2023/06/14 03:40:12;;;;;;;3.70;2.53;;;;;;;-146.58;100.00;69501.63;5012997;28;20500;-66
2023/06/14 03:42:37;;;;;;;6.65;3.30;;;;;;;-146.58;100.00;69501.63;5014318;28;20029;-66
2023/06/14 03:45:03;;;;;;;5.10;3.03;;;;;;;-146.58;100.00;69501.63;5012191;28;20050;-66
2023/06/14 03:47:28;;;;;;;8.73;2.58;;;;;;;-146.58;100.00;69501.63;5014523;28;20033;-66
2023/06/14 03:49:54;;;;;;;6.72;2.75;;;;;;;-146.58;100.00;69501.63;5012711;28;20038;-66
2023/06/14 03:52:19;;;;;;;7.00;2.60;;;;;;;-146.58;100.00;69501.63;5013887;28;20029;-66
2023/06/14 03:54:46;;;;;;;3.05;2.83;;;;;;;-146.58;100.00;69501.63;5012573;28;20057;-65
2023/06/14 03:57:11;;;;;;;5.70;2.80;;;;;;;-146.58;100.00;69501.63;5014158;28;20040;-66
2023/06/14 03:59:36;;;;;;;5.28;2.97;;;;;;;-146.58;100.00;69501.63;5012242;28;20045;-66
2023/06/14 04:02:02;;;;;;;7.72;2.70;;;;;;;-146.58;100.00;69501.63;5013944;28;20064;-66
2023/06/14 04:04:29;;;;;;;4.90;2.60;;;;;;;-146.58;100.00;69501.63;5010788;28;20439;-66
2023/06/14 04:06:56;;;;;;;3.45;2.70;;;;;;;-146.58;100.00;69501.63;5011688;28;20041;-65
2023/06/14 04:09:22;;;;;;;4.85;3.05;;;;;;;-146.58;100.00;69501.63;5011354;28;20038;-66
2023/06/14 04:11:48;;;;;;;3.58;2.78;;;;;;;-146.58;100.00;69501.63;5012356;28;20073;-65
2023/06/14 04:14:13;;;;;;;5.90;2.67;;;;;;;-146.58;100.00;69501.63;5010134;28;20048;-63
2023/06/14 04:16:38;;;;;;;2.30;2.10;;;;;;;-146.58;100.00;69501.63;5012634;28;20032;-63
2023/06/14 04:19:04;;;;;;;6.70;2.70;;;;;;;-146.58;100.00;69501.63;5011120;28;20421;-65
2023/06/14 04:21:29;;;;;;;5.00;2.53;;;;;;;-146.58;100.00;69501.63;5011749;28;20044;-62
2023/06/14 04:23:55;;;;;;;8.70;2.30;;;;;;;-146.58;100.00;69501.63;5010527;28;20120;-64
2023/06/14 04:26:23;;;;;;;5.32;2.58;;;;;;;-146.58;100.00;69501.63;5012245;28;20476;-64
2023/06/14 04:28:49;;;;;;;6.97;3.28;;;;;;;-146.58;100.00;69501.63;5010326;28;20045;-66
2023/06/14 04:31:16;;;;;;;5.60;2.65;;;;;;;-146.58;100.00;69501.63;5011712;28;20080;-66
2023/06/14 04:33:46;;;;;;;8.00;2.78;;;;;;;-146.58;100.00;69501.63;5009612;28;20088;-69
2023/06/14 04:36:13;;;;;;;3.35;2.85;;;;;;;-146.58;100.00;69501.63;5012231;28;20028;-68
2023/06/14 04:38:38;;;;;;;5.00;2.47;;;;;;;-146.58;100.00;69501.63;5010677;28;20058;-66
2023/06/14 04:41:04;;;;;;;4.32;3.13;;;;;;;-146.58;100.00;69501.63;5012194;28;20032;-67
2023/06/14 04:43:31;;;;;;;6.15;3.15;;;;;;;-146.58;100.00;69501.63;5011107;28;20086;-66
2023/06/14 04:45:57;;;;;;;7.80;3.03;;;;;;;-146.58;100.00;69501.63;5011758;28;20018;-66
2023/06/14 04:48:22;;;;;;;17.55;4.95;;;;;;;-146.58;100.00;69501.63;5010775;28;20033;-65
2023/06/14 04:50:52;;;;;;;7.10;4.25;;;;;;;-146.58;100.00;69501.63;5012040;28;20109;-66
2023/06/14 04:53:21;;;;;;;6.43;3.20;;;;;;;-146.58;100.00;69501.63;5010446;28;20022;-66
2023/06/14 04:55:46;;;;;;;;;;;;;;;-146.58;100.00;69501.63;5012594;28;20026;-67
2023/06/14 04:58:12;;;;;;;4.63;2.60;;;;;;;-146.58;100.00;69501.63;5010426;28;20001;-61
2023/06/14 05:00:38;;;;;;;4.03;2.45;;;;;;;-146.58;100.00;69501.63;5011614;28;20018;-61
2023/06/14 05:03:05;;;;;;;5.90;3.17;;;;;;;-146.58;100.00;69501.63;4975203;28;1067939;-61
2023/06/14 05:05:31;;;;;;;2.90;2.40;;;;;;;-146.58;100.00;69501.63;5011629;28;20045;-61
2023/06/14 05:07:56;;;;;;;5.50;3.10;;;;;;;-146.58;100.00;69501.63;5012346;28;20036;-61
2023/06/14 05:10:21;;;;;;;6.72;2.95;;;;;;;-146.58;100.00;69501.63;5011522;28;20048;-61
2023/06/14 05:12:47;;;;;;;8.10;3.00;;;;;;;-146.58;100.00;69501.63;5012197;28;20026;-61
2023/06/14 05:15:13;;;;;;;8.85;2.47;;;;;;;-146.58;100.00;69501.63;5010847;28;20045;-60
2023/06/14 05:17:40;;;;;;;8.50;3.03;;;;;;;-146.58;100.00;69501.63;5012716;28;20026;-61
2023/06/14 05:20:06;;;;;;;6.93;3.63;;;;;;;-146.58;100.00;69501.63;5011177;28;20037;-61
2023/06/14 05:22:32;;;;;;;2.88;2.58;;;;;;;-146.58;100.00;69501.63;5012106;28;20500;-61
2023/06/14 05:24:57;;;;;;;3.58;2.72;;;;;;;-146.58;100.00;69501.63;5010796;28;20038;-61
2023/06/14 05:27:23;;;;;;;5.80;3.10;;;;;;;-146.58;100.00;69501.63;5012392;28;20037;-61
2023/06/14 05:29:49;;;;;;;3.22;2.45;;;;;;;-146.58;100.00;69501.63;5010184;28;20096;-62
2023/06/14 05:32:14;;;;;;;6.00;3.65;;;;;;;-146.58;100.00;69501.63;5011623;28;20041;-62
2023/06/14 05:34:40;;;;;;;11.52;2.80;;;;;;;-146.58;100.00;69501.63;5009376;28;20041;-61
2023/06/14 05:37:05;;;;;;;8.88;2.72;;;;;;;-146.58;100.00;69501.63;5011874;28;20045;-62
2023/06/14 05:39:31;;;;;;;4.20;2.38;;;;;;;-146.58;100.00;69501.63;5011019;28;20045;-62
2023/06/14 05:41:56;;;;;;;3.08;2.25;;;;;;;-146.58;100.00;69501.63;5011796;28;20481;-62
2023/06/14 05:44:21;;;;;;;5.70;2.13;;;;;;;-146.58;100.00;69501.63;5010416;28;20037;-63
2023/06/14 05:46:47;;;;;;;8.98;2.50;;;;;;;-146.58;100.00;69501.63;5008673;28;20045;-62
2023/06/14 05:49:12;;;;;;;5.82;2.42;;;;;;;-146.58;100.00;69501.63;5010206;28;20107;-62
2023/06/14 05:51:37;;;;;;;4.72;2.38;;;;;;;-146.58;100.00;69501.63;5011665;28;20025;-62
2023/06/14 05:54:03;;;;;;;5.32;3.03;;;;;;;-146.58;100.00;69501.63;5010102;28;20071;-62
2023/06/14 05:56:28;;;;;;;8.15;2.65;;;;;;;-146.58;100.00;69501.63;5011746;28;20032;-62
2023/06/14 05:58:53;;;;;;;9.18;2.47;;;;;;;-146.58;100.00;69501.63;5009971;28;20049;-62
2023/06/14 06:01:20;;;;;;;3.83;2.13;;;;;;;-146.58;100.00;69501.63;5011920;28;20026;-62
2023/06/14 06:03:45;;;;;;;5.63;2.28;;;;;;;-146.58;100.00;69501.63;5009383;28;20106;-64
2023/06/14 06:06:11;;;;;;;3.55;2.40;;;;;;;-146.58;100.00;69501.63;5011392;28;20393;-62
2023/06/14 06:08:37;;;;;;;2.42;2.20;;;;;;;-146.58;100.00;69501.63;5010298;28;20409;-62
2023/06/14 06:11:02;;;;;;;3.30;2.67;;;;;;;-146.58;100.00;69501.63;5011011;28;20025;-63
2023/06/14 06:13:27;;;;;;;4.07;2.25;;;;;;;-146.58;100.00;69501.63;5009182;28;20038;-62
2023/06/14 06:15:53;;;;;;;2.97;1.95;;;;;;;-146.58;100.00;69501.63;5011387;28;20428;-63
2023/06/14 06:18:18;;;;;;;6.50;2.35;;;;;;;-146.58;100.00;69501.63;5010124;28;20030;-63
2023/06/14 06:20:44;;;;;;;12.60;2.40;;;;;;;-146.58;100.00;69501.63;5010239;28;20037;-63
2023/06/14 06:23:09;;;;;;;3.45;1.85;;;;;;;-146.58;100.00;69501.63;5010035;28;20022;-62
2023/06/14 06:25:35;;;;;;;2.13;1.92;;;;;;;-146.58;100.00;69501.63;5011319;28;20049;-63
2023/06/14 06:28:00;;;;;;;3.78;2.30;;;;;;;-146.58;100.00;69501.63;5010798;28;20029;-63
2023/06/14 06:30:26;;;;;;;5.18;2.33;;;;;;;-146.58;100.00;69501.63;5010320;28;20401;-63
2023/06/14 06:32:51;;;;;;;4.20;2.88;;;;;;;-146.58;100.00;69501.63;5011162;28;20267;-63
2023/06/14 06:35:17;;;;;;;6.82;3.33;;;;;;;-146.58;100.00;69501.63;5009432;28;20041;-63
2023/06/14 06:37:42;;;;;;;2.13;1.50;;;;;;;-146.58;100.00;69501.63;5011363;28;20032;-64
2023/06/14 06:40:08;;;;;;;4.20;2.38;;;;;;;-146.58;100.00;69501.63;5009836;28;20434;-63
2023/06/14 06:42:34;;;;;;;2.95;1.70;;;;;;;-146.58;100.00;69501.63;5011119;28;20033;-63
2023/06/14 06:44:59;;;;;;;2.58;2.38;;;;;;;-146.58;100.00;69501.63;5009365;28;20401;-63
2023/06/14 06:47:25;;;;;;;5.05;2.85;;;;;;;-146.58;100.00;69501.63;5011225;28;20076;-64
2023/06/14 06:49:50;;;;;;;4.75;2.20;;;;;;;-146.58;100.00;69501.63;5008995;28;20048;-64
2023/06/14 06:52:15;;;;;;;4.18;2.03;;;;;;;-146.58;100.00;69501.63;5011105;28;20040;-63
2023/06/14 06:54:41;;;;;;;4.55;1.98;;;;;;;-146.58;100.00;69501.63;5009284;28;20100;-63
2023/06/14 06:57:06;;;;;;;3.65;1.65;;;;;;;-146.58;100.00;69501.63;5011053;28;20029;-63
2023/06/14 06:59:32;;;;;;;7.32;2.50;;;;;;;-146.58;100.00;69501.63;5009586;28;20401;-63
2023/06/14 07:01:58;;;;;;;5.28;2.72;;;;;;;-146.58;100.00;69501.63;5010791;28;20026;-63
2023/06/14 07:04:23;;;;;;;8.15;2.20;;;;;;;-146.58;100.00;69501.63;5009123;28;20096;-63
2023/06/14 07:06:48;;;;;;;11.40;2.75;;;;;;;-146.58;100.00;69501.63;5010508;28;20381;-63
2023/06/14 07:09:15;;;;;;;4.05;1.60;;;;;;;-146.58;100.00;69501.63;5009512;28;20049;-63
2023/06/14 07:11:44;;;;;;;4.30;1.63;;;;;;;-146.58;100.00;69501.63;5010898;28;20385;-63
2023/06/14 07:14:09;;;;;;;4.75;2.15;;;;;;;-146.58;100.00;69501.63;5009349;28;20057;-63
2023/06/14 07:16:35;;;;;;;10.00;1.65;;;;;;;-146.58;100.00;69501.63;5010956;28;20092;-64
2023/06/14 07:19:02;;;;;;;1.45;1.35;;;;;;;21.13;100.00;166098.00;5009096;28;20049;-63
2023/06/14 07:21:27;;;;;;;18.52;2.17;;;;;;;21.30;100.00;166142.81;5010426;28;20121;-63
2023/06/14 07:23:53;;;;;;;2.00;1.55;;;;;;;21.40;100.00;166168.66;5009113;28;20046;-63
2023/06/14 07:26:19;;;;;;;3.22;2.08;;;;;;;21.50;100.00;166195.78;5010814;28;20030;-63
2023/06/14 07:28:44;;;;;;;17.48;2.20;;;;;;;21.55;100.00;166208.00;5009061;28;20041;-63
2023/06/14 07:31:10;;;;;;;1.73;1.45;;;;;;;21.49;100.00;166193.06;5010862;28;20030;-63
2023/06/14 07:33:35;;;;;;;5.18;2.55;;;;;;;21.42;100.00;166174.03;5009218;28;20034;-63
2023/06/14 07:36:01;;;;;;;3.35;1.63;;;;;;;21.44;100.00;166179.50;5010081;28;20025;-62
2023/06/14 07:38:26;;;;;;;2.85;2.22;;;;;;;21.62;100.00;166225.75;5009394;28;20045;-63
2023/06/14 07:40:52;;;;;;;3.67;1.80;;;;;;;21.64;100.00;166231.13;5010332;28;20499;-62
2023/06/14 07:43:17;;;;;;;2.25;1.63;;;;;;;21.63;100.00;166228.47;5008872;28;20025;-62
2023/06/14 07:45:42;;;;;;;2.45;1.52;;;;;;;21.77;100.00;166266.50;5010289;28;20022;-62
2023/06/14 07:48:09;;;;;;;1.85;1.33;;;;;;;21.93;100.00;166308.59;5009426;28;20077;-61
2023/06/14 07:50:34;;;;;;;1.70;1.38;;;;;;;22.07;100.00;166345.28;5010143;28;20029;-62
2023/06/14 07:52:59;;;;;;;1.90;1.75;;;;;;;22.24;100.00;166390.13;5010191;28;20026;-63
2023/06/14 07:55:25;;;;;;;1.25;1.13;;;;;;;22.16;100.00;166369.72;5009163;28;20515;-63
2023/06/14 07:57:50;;;;;;;4.13;2.35;;;;;;;22.17;100.00;166372.44;5013551;28;20473;-62
2023/06/14 08:00:17;;;;;;;3.25;1.45;;;;;;;22.38;100.00;166426.75;5012693;28;20460;-62
2023/06/14 08:02:43;;;;;;;3.23;1.60;;;;;;;22.53;100.00;166464.88;5013797;28;20064;-63
2023/06/14 08:05:11;;;;;;;6.95;2.53;;;;;;;22.67;100.00;166502.97;5012126;28;20125;-62
2023/06/14 08:07:36;;;;;;;4.43;1.35;;;;;;;22.74;100.00;166520.59;5014126;28;20022;-62
2023/06/14 08:10:02;;;;;;;5.50;1.40;;;;;;;22.85;100.00;166549.13;5012225;28;20072;-62
2023/06/14 08:12:27;;;;;;;5.80;1.83;;;;;;;22.90;100.00;166562.72;5013770;28;20034;-62
2023/06/14 08:14:52;;;;;;;4.03;1.30;;;;;;;23.00;100.00;166589.91;5012117;28;20053;-62
2023/06/14 08:17:18;;;;;;;7.70;1.92;;;;;;;23.10;100.00;166615.72;5013923;28;20026;-63
2023/06/14 08:19:43;;;;;;;2.05;1.20;;;;;;;23.18;100.00;166636.19;5011840;28;20420;-63
2023/06/14 08:22:11;;;;;;;2.30;2.13;;;;;;;23.00;100.00;166588.56;5013635;28;20498;-62
2023/06/14 08:24:37;;;;;;;1.52;1.42;;;;;;;23.17;100.00;166634.81;5012136;28;20034;-62
2023/06/14 08:27:02;;;;;;;1.75;1.00;;;;;;;23.19;100.00;166638.94;5009813;28;20030;-62
2023/06/14 08:29:29;;;;;;;2.58;1.90;;;;;;;23.16;100.00;166630.69;5023895;28;20042;-62
2023/06/14 08:31:54;;;;;;;3.03;1.40;;;;;;;23.29;100.00;166666.09;5032753;28;20369;-63
2023/06/14 08:34:20;;;;;;;2.35;1.65;;;;;;;23.25;100.00;166656.56;5020296;28;20100;-63
2023/06/14 08:36:45;;;;;;;4.07;1.42;;;;;;;23.22;100.00;166647.06;5012958;28;20432;-63
2023/06/14 08:39:11;;;;;;;6.38;1.10;;;;;;;23.31;100.00;166671.53;5011925;28;20425;-62
2023/06/14 08:41:37;;;;;;;5.20;1.60;;;;;;;23.42;100.00;166700.06;5013125;28;20026;-62
2023/06/14 08:44:02;;;;;;;3.55;1.33;;;;;;;23.51;100.00;166724.56;5011814;28;20054;-64
2023/06/14 08:46:33;;;;;;;1.45;1.35;;;;;;;23.59;100.00;166744.94;5013268;28;20426;-62
2023/06/14 08:49:00;;;;;;;1.63;1.50;;;;;;;23.78;100.00;166795.25;5011340;28;20057;-62
2023/06/14 08:51:33;;;;;;;1.67;1.58;;;;;;;24.04;100.00;166864.66;5012874;28;20032;-62
2023/06/14 08:54:01;;;;;;;2.45;1.35;;;;;;;24.12;100.00;166883.69;5011527;28;20034;-62
2023/06/14 08:56:29;;;;;;;3.47;1.20;;;;;;;24.10;98.33;166878.22;5012722;28;20021;-62
2023/06/14 08:58:54;;;;;;;11.60;4.43;;;;;;;24.29;99.02;166928.56;5011392;28;20153;-63
2023/06/14 09:01:21;;;;;;;6.18;1.52;;;;;;;24.22;98.34;166910.91;5013008;28;20589;-63
2023/06/14 09:03:48;;;;;;;3.83;1.92;;;;;;;24.08;97.88;166875.56;5010539;28;20053;-62
2023/06/14 09:06:13;;;;;;;2.72;1.17;;;;;;;24.26;98.43;166920.44;5012807;28;20030;-62
2023/06/14 09:08:46;;;;;;;4.00;1.10;;;;;;;24.18;96.73;166900.00;5010318;28;20096;-62
2023/06/14 09:11:15;;;;;;;10.90;2.03;;;;;;;23.96;95.64;166841.56;5012799;28;20025;-63
2023/06/14 09:13:41;;;;;;;4.75;1.40;;;;;;;23.92;96.29;166833.31;5011151;28;20054;-62
2023/06/14 09:16:07;;;;;;;5.60;1.42;;;;;;;23.82;97.07;166806.16;5012845;28;20438;-63
2023/06/14 09:18:38;;;;;;;6.93;1.92;;;;;;;23.74;94.05;166785.72;5010988;28;20038;-63
2023/06/14 09:21:07;;;;;;;3.72;1.75;;;;;;;23.62;94.53;166753.13;5012601;28;20133;-62
2023/06/14 09:23:43;;;;;;;5.72;1.35;;;;;;;23.84;96.75;166810.22;5011221;28;20042;-62
2023/06/14 09:26:13;;;;;;;4.47;1.50;;;;;;;23.80;95.58;166800.69;5012584;28;20068;-62
2023/06/14 09:28:46;;;;;;;7.97;2.70;;;;;;;23.92;94.05;166833.31;5010940;28;20053;-62
2023/06/14 09:31:13;;;;;;;6.90;1.88;;;;;;;24.10;91.42;166879.63;5012364;28;20022;-62
2023/06/14 09:33:42;;;;;;;6.38;1.60;;;;;;;23.72;93.89;166780.28;5010488;28;20041;-62
2023/06/14 09:36:14;;;;;;;3.70;1.90;;;;;;;23.88;96.11;166821.06;5012509;28;20022;-62
2023/06/14 09:38:40;;;;;;;3.95;3.30;;;;;;;23.88;94.56;166821.06;5010708;28;20048;-62
2023/06/14 09:41:06;;;;;;;4.70;1.67;;;;;;;23.71;93.88;166777.59;5012201;28;20022;-62
2023/06/14 09:43:33;;;;;;;7.82;1.92;;;;;;;23.63;95.37;166755.84;5010645;28;20393;-62
2023/06/14 09:46:00;;;;;;;8.18;2.08;;;;;;;23.57;93.85;166739.47;5012125;28;20360;-62
2023/06/14 09:48:26;;;;;;;2.50;1.33;;;;;;;23.67;94.97;166766.69;5010433;28;20040;-62
2023/06/14 09:50:52;;;;;;;7.80;1.63;;;;;;;23.81;96.55;166802.03;5011860;28;20585;-62
2023/06/14 09:53:21;;;;;;;4.10;1.88;;;;;;;24.04;99.55;166864.66;5010368;28;20026;-63
2023/06/14 09:55:49;;;;;;;5.80;2.60;;;;;;;24.06;96.59;166870.09;5011516;28;20028;-64
2023/06/14 09:58:16;;;;;;;5.43;1.33;;;;;;;23.83;95.68;166808.81;5010474;28;20531;-63
2023/06/14 10:00:43;;;;;;;14.10;2.42;;;;;;;23.66;94.99;166762.63;5011891;28;20028;-62
2023/06/14 10:03:13;;;;;;;7.70;1.15;;;;;;;23.75;97.22;166787.13;5009844;28;20042;-62
2023/06/14 10:05:41;;;;;;;7.60;1.38;;;;;;;23.08;95.54;166611.66;5011811;28;20018;-61
2023/06/14 10:08:10;;;;;;;;;;;;;;;23.54;99.02;166731.34;5010859;28;20102;-63
2023/06/14 10:10:38;;;;;;;3.47;1.33;;;;;;;23.81;97.09;166803.44;5011387;28;19905;-62
2023/06/14 10:13:03;;;;;;;;;;;;;;;24.03;99.30;166861.91;5010474;28;20025;-61
2023/06/14 10:15:59;;;;;;;9.00;1.50;;;;;;;24.19;97.25;166904.13;5011640;28;20254;-62
2023/06/14 10:18:30;;;;;;;3.03;1.63;;;;;;;24.27;97.29;166924.50;5013352;28;20037;-62
2023/06/14 10:21:08;;;;;;;7.95;1.40;;;;;;;23.97;93.13;166845.63;5030024;28;20515;-62
2023/06/14 10:23:37;;;;;;;4.93;1.20;;;;;;;24.33;94.77;166939.47;5028713;28;20808;-63
2023/06/14 10:26:03;;;;;;;5.05;1.73;;;;;;;24.42;92.65;166962.56;5028600;28;20484;-62
2023/06/14 10:28:30;;;;;;;5.20;1.45;;;;;;;24.38;93.58;166954.44;5025636;28;20042;-62
2023/06/14 10:31:03;;;;;;;6.57;1.97;;;;;;;24.42;93.02;166962.56;5011140;28;20022;-64
2023/06/14 10:33:29;;;;;;;4.53;1.13;;;;;;;24.25;92.77;166919.03;5009197;28;20563;-62
2023/06/14 10:36:23;;;;;;;19.45;1.80;;;;;;;24.08;92.76;166875.56;5010625;28;20026;-63
2023/06/14 10:38:57;;;;;;;23.50;1.58;;;;;;;24.41;93.06;166961.22;5009676;28;20034;-62
2023/06/14 10:41:25;;;;;;;5.82;2.17;;;;;;;24.36;92.56;166949.00;5011158;28;20040;-63
2023/06/14 10:43:51;;;;;;;4.15;1.40;;;;;;;24.45;93.27;166970.75;5009085;28;20046;-63
2023/06/14 10:46:17;;;;;;;1.08;0.98;;;;;;;24.56;94.71;167000.66;5010818;28;20022;-63
2023/06/14 10:48:44;;;;;;;3.42;1.20;;;;;;;24.54;92.67;166996.59;5008965;28;20064;-62
2023/06/14 10:51:20;;;;;;;3.35;1.10;;;;;;;24.29;91.55;166929.94;5011158;28;20030;-62
2023/06/14 10:53:49;;;;;;;2.38;1.58;;;;;;;24.42;92.34;166963.97;5009154;28;20041;-62
2023/06/14 10:56:28;;;;;;;7.07;1.30;;;;;;;24.70;93.62;167037.44;5011327;28;20029;-62
2023/06/14 10:58:56;;;;;;;2.83;0.95;;;;;;;24.78;92.44;167057.84;5009412;28;20520;-63
2023/06/14 11:01:32;;;;;;;10.02;1.80;;;;;;;24.38;87.81;166954.44;5010849;28;20028;-62
2023/06/14 11:04:08;;;;;;;2.78;1.00;;;;;;;24.62;91.64;167015.63;5009447;28;20181;-62
2023/06/14 11:06:46;;;;;;;1.13;0.90;;;;;;;24.98;93.23;167112.25;5011004;28;20030;-62
2023/06/14 11:09:11;;;;;;;;;;;;;;;25.12;92.78;167147.66;5010060;28;20125;-63
2023/06/14 11:11:38;;;;;;;1.52;1.17;;;;;;;25.32;93.25;167202.06;5011107;28;20000;-63
2023/06/14 11:14:04;;;;;;;3.50;0.93;;;;;;;-146.58;100.00;69501.63;5009380;28;20045;-62